Latest Coastal Weather Observations for Wadeye (Port Keats)

IDD60701

Issued at 2:31 am CST Friday 28 July 2017 (issued every 10 minutes, with the page automatically refreshed every 10 minutes)

About coastal observations | Map of coastal stations | Coastal observations for NT | Marine services | Other Formats
Station Details ID: 014948 Name: PORT KEATS AIRPORT Lat: -14.25 Lon: 129.53 Height: 28.0 m
Data from the previous 72 hours. | See also: Recent months at Wadeye (Port Keats)
Date/Time
CST
Temp
°C
Wind Pressure Rain since
9am
mm
Weather Cloud Vis
km
Sea
Height
m
Swell
Dir  Spd
kts
Gust
kts
hPa Trend Height
m
Period
s
Dir
28/02:30am 19.3 SSW 4 5 1014.4 - 0.0 - - - - - - -
28/02:00am 19.3 SSW 4 4 1014.5 - 0.0 - - - - - - -
28/01:30am 19.4 SSW 4 4 1014.4 - 0.0 - - - - - - -
28/01:00am 19.9 SSW 2 3 1014.5 - 0.0 - - - - - - -
28/12:30am 20.2 S 3 4 1014.3 - 0.0 - - - - - - -
28/12:00am 20.4 SSW 3 4 1014.5 - 0.0 - - - - - - -
 
Date/Time
CST
Temp
°C
Wind Pressure Rain since
9am
mm
Weather Cloud Vis
km
Sea
Height
m
Swell
Dir  Spd
kts
Gust
kts
hPa Trend Height
m
Period
s
Dir
27/11:30pm 20.6 SSW 3 4 1014.6 - 0.0 - - - - - - -
27/11:00pm 21.0 S 3 4 1014.6 - 0.0 - - - - - - -
27/10:30pm 21.4 SW 2 4 1014.7 - 0.0 - - - - - - -
27/10:00pm 22.2 ENE 2 5 1014.7 - 0.0 - - - - - - -
27/09:30pm 22.2 CALM 0 0 1014.4 - 0.0 - - - - - - -
27/09:00pm 23.1 CALM 0 0 1014.3 - 0.0 - - - - - - -
27/08:30pm 23.4 SW 2 3 1014.1 - 0.0 - - - - - - -
27/08:00pm 23.8 SW 2 4 1013.7 - 0.0 - - - - - - -
27/07:30pm 24.8 WSW 1 4 1013.4 - 0.0 - - - - - - -
27/07:00pm 25.5 WSW 4 5 1013.0 - 0.0 - - - - - - -
27/06:30pm 26.5 W 4 7 1012.8 - 0.0 - - - - - - -
27/06:00pm 27.8 W 5 8 1012.6 - 0.0 - - - - - - -
27/05:30pm 28.5 W 7 11 1012.3 - 0.0 - - - - - - -
27/05:00pm 29.1 W 6 9 1012.3 - 0.0 - - - - - - -
27/04:30pm 29.4 WNW 8 13 1012.3 - 0.0 - - - - - - -
27/04:00pm 29.5 W 8 12 1012.2 - 0.0 - - - - - - -
27/03:30pm 29.2 W 8 13 1012.1 - 0.0 - - - - - - -
27/03:00pm 29.5 WNW 8 14 1012.4 - 0.0 - - - - - - -
27/02:30pm 32.2 ESE 4 9 1012.7 - 0.0 - - - - - - -
27/02:00pm 31.5 ESE 8 12 1013.2 - 0.0 - - - - - - -
27/01:30pm 31.1 E 7 11 1013.5 - 0.0 - - - - - - -
27/01:00pm 30.7 E 5 11 1014.0 - 0.0 - - - - - - -
27/12:30pm 30.2 NE 7 11 1014.5 - 0.0 - - - - - - -
27/12:00pm 29.3 NE 8 11 1015.0 - 0.0 - - - - - - -
27/11:30am 28.9 NE 8 14 1015.3 - 0.0 - - - - - - -
27/11:00am 28.7 E 7 12 1015.7 - 0.0 - - - - - - -
27/10:30am 27.8 E 6 9 1016.1 - 0.0 - - - - - - -
27/10:00am 27.4 E 8 11 1016.2 - 0.0 - - - - - - -
27/09:30am 26.1 ESE 9 15 1016.0 - 0.0 - - - - - - -
27/09:00am 25.4 ENE 5 6 1015.5 - 0.0 - - - - - - -
27/08:30am 24.1 E 4 6 1015.2 - 0.0 - - - - - - -
27/08:00am 22.9 E 3 5 1014.9 - 0.0 - - - - - - -
27/07:30am 20.5 ESE 1 4 1014.4 - 0.0 - - - - - - -
27/07:00am 18.6 CALM 0 0 1014.1 - 0.0 - - - - - - -
27/06:30am 18.5 SSE 3 4 1013.8 - 0.0 - - - - - - -
27/06:00am 19.5 SE 4 4 1013.4 - 0.0 - - - - - - -
27/05:30am 19.3 SSE 2 4 1013.4 - 0.0 - - - - - - -
27/05:00am 19.9 SSE 3 4 1013.3 - 0.0 - - - - - - -
27/04:30am 21.0 ENE 3 5 1013.1 - 0.0 - - - - - - -
27/04:00am 21.1 NNE 5 6 1013.0 - 0.0 - - - - - - -
27/03:30am 20.7 NNE 7 10 1012.8 - 0.0 - - - - - - -
27/03:00am 19.4 SSE 2 4 1012.7 - 0.0 - - - - - - -
27/02:30am 19.6 CALM 0 0 1013.0 - 0.0 - - - - - - -
27/02:00am 19.7 CALM 0 0 1013.1 - 0.0 - - - - - - -
27/01:30am 19.8 CALM 0 0 1013.2 - 0.0 - - - - - - -
27/01:00am 20.0 CALM 0 0 1013.4 - 0.0 - - - - - - -
27/12:30am 20.0 CALM 0 0 1013.4 - 0.0 - - - - - - -
27/12:00am 20.3 SSW 1 3 1013.4 - 0.0 - - - - - - -
 
Date/Time
CST
Temp
°C
Wind Pressure Rain since
9am
mm
Weather Cloud Vis
km
Sea
Height
m
Swell
Dir  Spd
kts
Gust
kts
hPa Trend Height
m
Period
s
Dir
26/11:30pm 20.5 S 3 4 1013.5 - 0.0 - - - - - - -
26/11:00pm 21.1 CALM 0 0 1013.6 - 0.0 - - - - - - -
26/10:30pm 21.5 CALM 0 0 1013.7 - 0.0 - - - - - - -
26/10:00pm 22.2 CALM 0 0 1013.5 - 0.0 - - - - - - -
26/09:30pm 23.2 CALM 0 0 1013.4 - 0.0 - - - - - - -
26/09:00pm 23.1 CALM 0 0 1013.1 - 0.0 - - - - - - -
26/08:30pm 24.0 CALM 0 0 1012.8 - 0.0 - - - - - - -
26/08:00pm 24.1 CALM 0 0 1012.4 - 0.0 - - - - - - -
26/07:30pm 25.1 SW 2 4 1012.1 - 0.0 - - - - - - -
26/07:00pm 25.8 SW 3 6 1011.8 - 0.0 - - - - - - -
26/06:30pm 26.7 W 5 8 1011.6 - 0.0 - - - - - - -
26/06:00pm 28.0 WSW 7 10 1011.5 - 0.0 - - - - - - -
26/05:30pm 29.1 WSW 7 11 1011.2 - 0.0 - - - - - - -
26/05:00pm 29.5 WSW 7 12 1010.9 - 0.0 - - - - - - -
26/04:30pm 30.2 WSW 7 10 1010.8 - 0.0 - - - - - - -
26/04:00pm 30.5 W 8 12 1010.8 - 0.0 - - - - - - -
26/03:30pm 30.8 W 6 10 1010.9 - 0.0 - - - - - - -
26/03:00pm 30.6 WNW 7 11 1011.2 - 0.0 - - - - - - -
26/02:30pm 31.3 NW 7 11 1011.6 - 0.0 - - - - - - -
26/02:00pm 30.4 WNW 7 12 1012.4 - 0.0 - - - - - - -
26/01:30pm 30.9 NW 7 11 1012.9 - 0.0 - - - - - - -
26/01:00pm 32.6 SE 7 11 1013.4 - 0.0 - - - - - - -
26/12:30pm 30.9 N 6 9 1013.9 - 0.0 - - - - - - -
26/12:00pm 30.4 NNE 6 9 1014.3 - 0.0 - - - - - - -
26/11:30am 29.4 N 5 8 1014.8 - 0.0 - - - - - - -
26/11:00am 29.1 N 3 6 1015.1 - 0.0 - - - - - - -
26/10:30am 28.9 NNW 3 7 1015.2 - 0.0 - - - - - - -
26/10:00am 28.2 E 4 6 1015.2 - 0.0 - - - - - - -
26/09:30am 27.0 E 5 7 1014.9 - 0.0 - - - - - - -
26/09:00am 25.9 CALM 0 3 1014.6 - 0.0 - - - - - - -
26/08:30am 21.7 CALM 0 0 1014.2 - 0.0 - - - - - - -
26/08:00am 19.7 CALM 0 0 1013.7 - 0.0 - - - - - - -
26/07:30am 19.1 SE 4 6 1013.2 - 0.0 - - - - - - -
26/07:00am 22.0 ESE 5 7 1013.1 - 0.0 - - - - - - -
26/06:55am 22.7 ESE 5 7 1013.0 - 0.0 - - - - - - -
26/06:30am 17.6 ESE 4 6 1012.7 - 0.0 - - - - - - -
26/06:00am 17.3 SSE 3 4 1012.5 - 0.0 - - - - - - -
26/05:30am 19.7 SE 4 4 1012.2 - 0.0 - - - - - - -
26/05:00am 18.2 SE 4 4 1012.4 - 0.0 - - - - - - -
26/04:30am 18.1 SSE 1 3 1012.5 - 0.0 - - - - - - -
26/04:00am 18.4 SSE 3 4 1012.4 - 0.0 - - - - - - -
26/03:30am 19.6 SE 3 4 1012.5 - 0.0 - - - - - - -
26/03:00am 19.9 CALM 0 0 1012.8 - 0.0 - - - - - - -
26/02:30am 21.0 CALM 0 0 1012.8 - 0.0 - - - - - - -
26/02:00am 21.8 N 4 6 1012.9 - 0.0 - - - - - - -
26/01:30am 23.4 S 4 5 1012.7 - 0.0 - - - - - - -
26/01:00am 23.6 S 4 6 1012.8 - 0.0 - - - - - - -
26/12:30am 23.6 SSW 5 6 1013.1 - 0.0 - - - - - - -
26/12:00am 23.9 S 5 7 1013.2 - 0.0 - - - - - - -
 
Date/Time
CST
Temp
°C
Wind Pressure Rain since
9am
mm
Weather Cloud Vis
km
Sea
Height
m
Swell
Dir  Spd
kts
Gust
kts
hPa Trend Height
m
Period
s
Dir
25/11:30pm 25.3 S 5 6 1013.2 - 0.0 - - - - - - -
25/11:00pm 25.5 S 6 8 1013.2 - 0.0 - - - - - - -
25/10:30pm 25.5 SSE 5 7 1013.3 - 0.0 - - - - - - -
25/10:00pm 26.2 S 5 8 1013.3 - 0.0 - - - - - - -
25/09:30pm 26.4 S 6 8 1013.1 - 0.0 - - - - - - -
25/09:00pm 25.0 S 4 7 1012.9 - 0.0 - - - - - - -
25/08:30pm 24.1 S 4 5 1012.5 - 0.0 - - - - - - -
25/08:00pm 25.0 S 2 4 1012.1 - 0.0 - - - - - - -
25/07:30pm 26.2 SSW 2 3 1011.8 - 0.0 - - - - - - -
25/07:00pm 27.3 SW 3 4 1011.6 - 0.0 - - - - - - -
25/06:30pm 29.0 SW 2 4 1011.3 - 0.0 - - - - - - -
25/06:00pm 30.4 SW 5 7 1010.9 - 0.0 - - - - - - -
25/05:30pm 31.5 SW 6 9 1010.8 - 0.0 - - - - - - -
25/05:00pm 33.4 SSW 5 8 1010.6 - 0.0 - - - - - - -
25/04:30pm 33.0 WNW 6 10 1010.6 - 0.0 - - - - - - -
25/04:00pm 33.1 W 6 10 1010.6 - 0.0 - - - - - - -
25/03:30pm 33.2 NW 5 8 1010.7 - 0.0 - - - - - - -
25/03:00pm 33.3 SSE 7 11 1010.8 - 0.0 - - - - - - -
25/02:30pm 33.7 SE 8 16 1011.1 - 0.0 - - - - - - -
25/02:00pm 32.8 ENE 7 11 1011.6 - 0.0 - - - - - - -
25/01:30pm 32.5 ESE 7 11 1012.4 - 0.0 - - - - - - -
25/01:00pm 32.2 E 7 11 1012.9 - 0.0 - - - - - - -
25/12:30pm 32.1 E 8 13 1013.4 - 0.0 - - - - - - -
25/12:00pm 31.3 E 9 12 1013.9 - 0.0 - - - - - - -
25/11:30am 30.6 E 9 18 1014.4 - 0.0 - - - - - - -
25/11:00am 29.7 E 8 12 1014.7 - 0.0 - - - - - - -
25/10:30am 28.9 ESE 7 11 1014.8 - 0.0 - - - - - - -
25/10:00am 27.4 ESE 9 12 1015.0 - 0.0 - - - - - - -
25/09:30am 26.5 SE 9 14 1014.9 - 0.0 - - - - - - -
25/09:00am 25.3 SE 9 13 1014.8 - 0.0 - - - - - - -
25/08:30am 24.8 SE 10 14 1014.6 - 0.0 - - - - - - -
25/08:00am 23.9 SE 10 14 1014.2 - 0.0 - - - - - - -
25/07:30am 23.6 SE 9 12 1014.0 - 0.0 - - - - - - -
25/07:00am 23.7 SE 9 13 1013.7 - 0.0 - - - - - - -
25/06:30am 23.7 SE 9 13 1013.4 - 0.0 - - - - - - -
25/06:00am 23.6 SE 8 10 1013.3 - 0.0 - - - - - - -
25/05:30am 24.3 SE 8 11 1013.3 - 0.0 - - - - - - -
25/05:00am 24.4 SE 10 14 1013.2 - 0.0 - - - - - - -
25/04:30am 24.2 SSE 9 12 1013.0 - 0.0 - - - - - - -
25/04:00am 24.3 SSE 9 12 1012.9 - 0.0 - - - - - - -
25/03:30am 24.6 SSE 10 13 1012.8 - 0.0 - - - - - - -
25/03:00am 25.1 SSE 9 14 1012.9 - 0.0 - - - - - - -

Other Formats:

Comma delimited format used in spreadsheet applications
http://www.bom.gov.au/fwo/IDD60701/IDD60701.95111.axf

JavaScript Object Notation format (JSON) in row-major order
http://www.bom.gov.au/fwo/IDD60701/IDD60701.95111.json